Time;durP1;ratioP1;P1;durP2;ratioP2;P2;SDS_P1;SDS_P2;PMS_P1;PMS_P2;Temp;Humidity;BMP_temperature;BMP_pressure;BME280_temperature;BME280_humidity;BME280_pressure;Samples;Min_cycle;Max_cycle;Signal;HPM_P1;HPM_P2
2022/04/06 00:01:27;;;;;;;6.33;5.40;;;11.20;85.00;;;;;;5028980;28;20548;-42
2022/04/06 00:03:54;;;;;;;6.43;5.67;;;11.20;85.10;;;;;;5029167;28;20954;-42
2022/04/06 00:06:21;;;;;;;10.00;5.57;;;11.20;85.30;;;;;;5029297;28;20850;-42
2022/04/06 00:09:08;;;;;;;7.17;5.30;;;11.20;85.60;;;;;;5014344;28;20464;-41
2022/04/06 00:11:35;;;;;;;7.70;5.37;;;11.20;86.10;;;;;;5028294;28;21211;-42
2022/04/06 00:14:01;;;;;;;7.60;5.03;;;11.20;86.40;;;;;;5006160;28;20451;-42
2022/04/06 00:16:28;;;;;;;6.97;5.17;;;11.20;86.60;;;;;;5028827;28;20463;-42
2022/04/06 00:18:55;;;;;;;7.13;5.73;;;11.20;87.00;;;;;;5029307;28;20542;-42
2022/04/06 00:21:25;;;;;;;7.50;6.07;;;11.20;87.50;;;;;;5027342;28;20449;-42
2022/04/06 00:23:51;;;;;;;8.67;6.67;;;11.10;87.80;;;;;;5026231;28;20514;-42
2022/04/06 00:26:18;;;;;;;10.57;6.47;;;11.10;87.80;;;;;;5028777;28;20488;-42
2022/04/06 00:28:45;;;;;;;8.10;5.53;;;11.10;87.90;;;;;;5026234;28;20470;-42
2022/04/06 00:31:13;;;;;;;7.90;5.93;;;11.10;87.80;;;;;;5028759;28;20502;-42
2022/04/06 00:33:39;;;;;;;6.93;4.80;;;11.00;87.90;;;;;;5000116;28;20484;-42
2022/04/06 00:36:06;;;;;;;7.37;5.77;;;11.00;88.10;;;;;;5027681;28;20464;-42
2022/04/06 00:38:33;;;;;;;7.77;5.60;;;11.00;87.80;;;;;;5026084;28;20883;-42
2022/04/06 00:41:00;;;;;;;8.23;6.60;;;11.00;87.60;;;;;;5011734;28;20544;-42
2022/04/06 00:43:26;;;;;;;9.23;6.03;;;11.00;87.40;;;;;;5005678;28;20543;-42
2022/04/06 00:45:53;;;;;;;7.43;6.20;;;11.00;87.20;;;;;;5027752;28;20457;-42
2022/04/06 00:48:20;;;;;;;8.77;6.23;;;11.00;87.10;;;;;;5027983;28;21033;-42
2022/04/06 00:50:47;;;;;;;11.63;8.00;;;11.00;87.00;;;;;;5005941;28;20461;-42
2022/04/06 00:53:14;;;;;;;12.43;8.30;;;11.00;86.90;;;;;;5026779;28;20461;-42
2022/04/06 00:55:41;;;;;;;9.40;6.60;;;11.00;87.10;;;;;;5025975;28;20469;-42
2022/04/06 00:58:08;;;;;;;8.13;6.80;;;11.10;86.90;;;;;;5027818;28;20468;-42
2022/04/06 01:00:35;;;;;;;8.00;6.40;;;11.10;86.60;;;;;;5025527;28;20547;-42
2022/04/06 01:03:02;;;;;;;10.83;6.40;;;11.10;86.30;;;;;;5011892;28;20471;-42
2022/04/06 01:05:29;;;;;;;9.73;6.50;;;11.10;86.20;;;;;;5026688;28;20463;-42
2022/04/06 01:08:00;;;;;;;8.27;6.90;;;11.10;86.10;;;;;;5026983;28;20493;-42
2022/04/06 01:10:27;;;;;;;8.33;6.90;;;11.00;86.50;;;;;;5027707;28;20453;-42
2022/04/06 01:12:55;;;;;;;8.50;7.13;;;11.10;86.30;;;;;;5025609;28;20462;-42
2022/04/06 01:15:23;;;;;;;9.40;7.20;;;11.10;86.00;;;;;;5005302;28;20969;-42
2022/04/06 01:17:50;;;;;;;10.53;8.17;;;11.10;85.70;;;;;;5025072;28;20480;-42
2022/04/06 01:20:17;;;;;;;12.30;7.73;;;11.10;85.70;;;;;;5026904;28;20473;-42
2022/04/06 01:22:43;;;;;;;11.13;7.03;;;11.10;85.70;;;;;;5027029;28;20835;-42
2022/04/06 01:25:10;;;;;;;10.30;7.63;;;11.10;85.70;;;;;;5028401;28;20970;-42
2022/04/06 01:27:37;;;;;;;10.30;7.90;;;11.10;85.50;;;;;;5008497;28;20480;-42
2022/04/06 01:30:05;;;;;;;10.97;8.23;;;11.10;85.80;;;;;;5027031;28;20453;-42
2022/04/06 01:32:32;;;;;;;11.23;8.00;;;11.00;85.80;;;;;;5026801;28;20603;-42
2022/04/06 01:34:59;;;;;;;13.33;7.90;;;11.10;85.60;;;;;;5026316;28;20461;-42
2022/04/06 01:37:28;;;;;;;10.40;8.20;;;11.10;85.40;;;;;;5008216;28;20453;-42
2022/04/06 01:39:55;;;;;;;9.67;7.40;;;11.10;85.50;;;;;;4994253;28;20558;-42
2022/04/06 01:42:22;;;;;;;12.80;8.37;;;11.10;85.10;;;;;;5006823;28;20486;-42
2022/04/06 01:44:50;;;;;;;10.80;7.63;;;11.10;85.20;;;;;;5025298;28;20469;-42
2022/04/06 01:47:18;;;;;;;9.90;7.93;;;11.10;85.10;;;;;;5008049;28;20492;-42
2022/04/06 01:52:32;;;;;;;9.17;7.07;;;11.10;84.80;;;;;;5027744;28;20459;-42
2022/04/06 01:55:03;;;;;;;9.07;7.17;;;11.10;85.20;;;;;;5027509;28;20829;-42
2022/04/06 01:57:30;;;;;;;8.07;6.77;;;11.10;84.90;;;;;;5027627;28;20448;-42
2022/04/06 01:59:58;;;;;;;12.07;7.77;;;11.00;85.10;;;;;;5022901;28;20822;-42
2022/04/06 02:02:30;;;;;;;10.40;7.40;;;11.10;85.00;;;;;;5027709;28;21055;-42
2022/04/06 02:04:59;;;;;;;12.73;8.60;;;11.10;85.00;;;;;;5028600;28;20518;-42
2022/04/06 02:07:26;;;;;;;10.37;7.83;;;11.10;85.00;;;;;;5031300;28;20499;-42
2022/04/06 02:09:53;;;;;;;10.00;7.90;;;11.10;84.90;;;;;;5031831;28;20456;-42
2022/04/06 02:12:22;;;;;;;10.30;7.43;;;11.10;85.00;;;;;;5031408;28;20460;-42
2022/04/06 02:14:50;;;;;;;9.60;6.83;;;11.10;84.70;;;;;;5030781;28;20578;-42
2022/04/06 02:17:17;;;;;;;12.70;9.00;;;11.20;84.60;;;;;;5011040;28;20471;-42
2022/04/06 02:19:44;;;;;;;8.30;6.73;;;11.20;84.50;;;;;;5013600;28;20478;-42
2022/04/06 02:22:11;;;;;;;12.17;8.37;;;11.20;84.20;;;;;;5029875;28;20457;-42
2022/04/06 02:24:38;;;;;;;9.23;6.97;;;11.20;84.10;;;;;;4999610;28;21037;-44
2022/04/06 02:27:08;;;;;;;7.83;7.00;;;11.20;84.10;;;;;;5013233;28;20607;-45
2022/04/06 02:29:37;;;;;;;10.40;6.50;;;11.20;83.70;;;;;;5012562;28;20456;-44
2022/04/06 02:32:05;;;;;;;7.37;5.80;;;11.20;83.40;;;;;;5029735;28;20480;-45
2022/04/06 02:34:32;;;;;;;6.87;5.70;;;11.20;83.50;;;;;;4997192;28;20468;-45
2022/04/06 02:37:00;;;;;;;9.00;6.43;;;11.20;82.90;;;;;;5030246;28;20526;-45
2022/04/06 02:39:28;;;;;;;11.03;6.67;;;11.20;82.40;;;;;;5030069;28;20469;-44
2022/04/06 02:41:54;;;;;;;9.50;6.90;;;11.20;82.70;;;;;;5029650;28;20973;-42
2022/04/06 02:44:21;;;;;;;13.30;6.23;;;11.20;82.60;;;;;;5015243;28;20456;-42
2022/04/06 02:46:48;;;;;;;8.23;6.20;;;11.20;82.00;;;;;;5027381;28;20488;-42
2022/04/06 02:49:15;;;;;;;7.40;6.30;;;11.20;81.70;;;;;;5014781;28;20462;-42
2022/04/06 02:51:43;;;;;;;7.97;6.80;;;11.20;81.70;;;;;;5029674;28;20461;-42
2022/04/06 02:54:09;;;;;;;8.30;6.33;;;11.20;81.70;;;;;;5031221;28;21162;-42
2022/04/06 02:56:37;;;;;;;10.70;7.20;;;11.20;81.60;;;;;;5011697;28;20708;-42
2022/04/06 02:59:04;;;;;;;7.20;6.37;;;11.20;81.60;;;;;;5029883;28;20997;-42
2022/04/06 03:01:31;;;;;;;6.47;5.27;;;11.20;81.20;;;;;;5028431;28;20463;-42
2022/04/06 03:03:58;;;;;;;9.67;5.80;;;11.20;81.30;;;;;;5027864;28;20885;-42
2022/04/06 03:06:25;;;;;;;8.40;6.47;;;11.20;81.50;;;;;;5009931;28;20501;-42
2022/04/06 03:08:51;;;;;;;13.77;5.40;;;11.20;81.60;;;;;;5030276;28;20492;-42
2022/04/06 03:11:18;;;;;;;9.03;5.47;;;11.20;81.60;;;;;;5027989;28;21154;-42
2022/04/06 03:13:45;;;;;;;11.53;6.87;;;11.20;81.10;;;;;;5027416;28;20491;-42
2022/04/06 03:16:12;;;;;;;6.50;5.63;;;11.20;80.70;;;;;;5012011;28;20528;-43
2022/04/06 03:18:38;;;;;;;9.67;7.57;;;11.20;80.50;;;;;;5029056;28;21039;-43
2022/04/06 03:21:05;;;;;;;6.20;4.80;;;11.20;80.10;;;;;;5029169;28;20808;-43
2022/04/06 03:23:32;;;;;;;12.80;6.77;;;11.20;79.90;;;;;;5028443;28;20465;-43
2022/04/06 03:25:58;;;;;;;7.70;5.93;;;11.20;79.40;;;;;;5024970;28;20473;-43
2022/04/06 03:28:25;;;;;;;9.60;5.83;;;11.20;79.50;;;;;;5024721;28;20503;-43
2022/04/06 03:30:52;;;;;;;10.00;6.10;;;11.10;79.80;;;;;;5022985;28;21006;-43
2022/04/06 03:33:18;;;;;;;8.50;5.70;;;11.10;79.90;;;;;;5013411;28;20455;-43
2022/04/06 03:35:45;;;;;;;7.27;4.83;;;11.10;80.20;;;;;;5011297;28;20448;-43
2022/04/06 03:38:12;;;;;;;9.10;6.73;;;11.10;80.10;;;;;;5027578;28;20454;-43
2022/04/06 03:40:41;;;;;;;6.43;5.07;;;11.10;79.20;;;;;;5007359;28;20539;-43
2022/04/06 03:43:08;;;;;;;10.63;5.97;;;11.10;79.20;;;;;;5026368;28;20822;-42
2022/04/06 03:45:34;;;;;;;9.67;4.30;;;11.10;78.40;;;;;;5025047;28;21021;-42
2022/04/06 03:48:01;;;;;;;6.07;5.20;;;11.10;77.70;;;;;;5011541;28;20515;-42
2022/04/06 03:50:28;;;;;;;5.87;4.90;;;11.10;77.40;;;;;;5028196;28;20457;-42
2022/04/06 03:52:55;;;;;;;7.47;4.30;;;11.10;76.80;;;;;;5028153;28;20457;-42
2022/04/06 03:55:22;;;;;;;8.07;4.57;;;11.10;76.30;;;;;;5027767;28;20460;-42
2022/04/06 03:57:49;;;;;;;6.53;4.03;;;11.10;76.10;;;;;;5007652;28;20544;-42
2022/04/06 04:00:16;;;;;;;8.03;3.90;;;11.10;76.10;;;;;;5026036;28;20468;-42
2022/04/06 04:02:43;;;;;;;4.77;4.20;;;11.00;76.10;;;;;;5028556;28;20893;-42
2022/04/06 04:05:10;;;;;;;5.70;3.93;;;11.00;76.40;;;;;;5026332;28;20464;-42
2022/04/06 04:07:40;;;;;;;7.50;4.80;;;11.00;76.20;;;;;;5027265;28;20491;-42
2022/04/06 04:10:09;;;;;;;8.90;4.60;;;11.00;76.20;;;;;;5030098;28;20449;-42
2022/04/06 04:12:37;;;;;;;9.60;6.80;;;11.00;76.30;;;;;;5029144;28;20498;-42
2022/04/06 04:15:04;;;;;;;8.50;5.67;;;11.00;76.40;;;;;;5023437;28;20485;-42
2022/04/06 04:17:31;;;;;;;7.93;5.30;;;11.00;76.60;;;;;;5026006;28;20471;-42
2022/04/06 04:19:58;;;;;;;7.00;4.93;;;11.10;76.40;;;;;;5027554;28;20468;-42
2022/04/06 04:22:25;;;;;;;7.40;4.80;;;11.00;76.80;;;;;;5025223;28;20599;-42
2022/04/06 04:24:52;;;;;;;8.10;5.57;;;11.00;77.00;;;;;;5026443;28;20466;-42
2022/04/06 04:27:19;;;;;;;10.67;4.50;;;11.00;76.60;;;;;;5026846;28;20488;-42
2022/04/06 04:29:45;;;;;;;7.10;5.03;;;11.00;76.10;;;;;;5009366;28;20467;-42
2022/04/06 04:32:14;;;;;;;6.80;5.10;;;11.00;75.90;;;;;;5021224;28;20482;-42
2022/04/06 04:34:41;;;;;;;5.97;5.07;;;11.00;75.80;;;;;;5025341;28;20900;-42
2022/04/06 04:37:08;;;;;;;6.73;4.37;;;11.00;76.20;;;;;;4993485;28;20547;-42
2022/04/06 04:39:35;;;;;;;9.30;4.30;;;11.00;76.40;;;;;;5023387;28;20881;-42
2022/04/06 04:42:03;;;;;;;6.43;4.43;;;11.00;76.10;;;;;;4998890;28;20496;-42
2022/04/06 04:44:29;;;;;;;8.60;5.43;;;11.00;76.00;;;;;;5008381;28;20487;-42
2022/04/06 04:46:57;;;;;;;8.97;5.00;;;10.90;76.20;;;;;;5027495;28;20507;-42
2022/04/06 04:49:24;;;;;;;6.23;4.90;;;10.90;76.20;;;;;;5009877;28;20457;-42
2022/04/06 04:51:51;;;;;;;5.50;4.70;;;10.90;75.90;;;;;;5024762;28;20535;-42
2022/04/06 04:54:23;;;;;;;9.23;4.70;;;10.90;76.00;;;;;;5007963;28;20462;-42
2022/04/06 04:56:55;;;;;;;6.63;4.60;;;10.90;75.90;;;;;;5025815;28;20465;-42
2022/04/06 04:59:22;;;;;;;5.50;4.33;;;10.90;75.80;;;;;;5015300;28;20982;-42
2022/04/06 05:01:49;;;;;;;6.33;3.83;;;10.90;75.70;;;;;;5026735;28;20465;-42
2022/04/06 05:04:15;;;;;;;7.43;4.20;;;10.90;75.60;;;;;;5024771;28;20513;-42
2022/04/06 05:06:43;;;;;;;7.33;4.13;;;10.90;75.60;;;;;;5025472;28;20472;-42
2022/04/06 05:09:10;;;;;;;7.50;4.57;;;10.90;74.80;;;;;;5024943;28;20496;-42
2022/04/06 05:11:36;;;;;;;6.57;3.97;;;10.90;75.10;;;;;;5023437;28;20468;-42
2022/04/06 05:14:03;;;;;;;6.57;4.40;;;10.90;74.80;;;;;;5010142;28;20577;-42
2022/04/06 05:16:31;;;;;;;8.00;5.30;;;10.90;74.90;;;;;;5024765;28;20471;-42
2022/04/06 05:19:00;;;;;;;10.13;4.47;;;10.90;74.80;;;;;;5021971;28;20468;-42
2022/04/06 05:21:27;;;;;;;6.43;4.00;;;10.90;75.00;;;;;;5027470;28;20470;-42
2022/04/06 05:23:54;;;;;;;5.73;4.23;;;10.90;74.80;;;;;;5021778;28;20468;-42
2022/04/06 05:26:24;;;;;;;6.40;4.27;;;10.80;74.40;;;;;;5009650;28;20461;-42
2022/04/06 05:28:50;;;;;;;11.97;4.30;;;10.80;74.80;;;;;;5025189;28;20503;-42
2022/04/06 05:31:17;;;;;;;7.83;3.70;;;10.80;74.90;;;;;;5025235;28;20958;-42
2022/04/06 05:33:45;;;;;;;7.67;5.67;;;10.80;74.90;;;;;;5025497;28;20847;-42
2022/04/06 05:36:18;;;;;;;10.40;5.50;;;10.80;74.90;;;;;;5024889;28;20491;-42
2022/04/06 05:38:45;;;;;;;9.13;4.67;;;10.90;74.90;;;;;;5008368;28;20461;-41
2022/04/06 05:41:11;;;;;;;5.30;4.10;;;10.90;73.90;;;;;;5008143;28;20463;-41
2022/04/06 05:43:38;;;;;;;5.93;3.87;;;10.90;74.20;;;;;;5008531;28;20479;-41
2022/04/06 05:46:05;;;;;;;6.00;3.70;;;10.90;74.40;;;;;;5026006;28;20492;-41
2022/04/06 05:48:32;;;;;;;4.93;3.67;;;10.90;73.60;;;;;;5023552;28;21207;-41
2022/04/06 05:50:58;;;;;;;6.30;4.00;;;10.90;73.70;;;;;;5025049;28;20465;-41
2022/04/06 05:53:25;;;;;;;5.90;4.53;;;10.90;73.80;;;;;;5027774;28;20956;-42
2022/04/06 05:55:52;;;;;;;6.90;3.73;;;10.90;73.70;;;;;;5025989;28;20456;-42
2022/04/06 05:58:19;;;;;;;6.30;4.27;;;10.90;73.20;;;;;;5010402;28;20456;-41
2022/04/06 06:00:46;;;;;;;4.43;3.37;;;10.90;73.20;;;;;;5010262;28;20463;-41
2022/04/06 06:03:13;;;;;;;5.50;4.20;;;10.90;73.60;;;;;;5025359;28;20972;-42
2022/04/06 06:05:40;;;;;;;6.50;4.40;;;10.90;73.10;;;;;;5026082;28;20468;-42
2022/04/06 06:08:15;;;;;;;10.67;3.83;;;10.90;71.90;;;;;;5027329;28;20497;-41
2022/04/06 06:10:42;;;;;;;4.97;3.27;;;10.90;71.80;;;;;;5024906;28;20819;-41
2022/04/06 06:13:08;;;;;;;5.40;3.40;;;11.00;71.10;;;;;;5023136;28;20453;-41
2022/04/06 06:15:35;;;;;;;8.40;3.40;;;10.90;70.80;;;;;;5021961;28;21625;-41
2022/04/06 06:18:02;;;;;;;11.23;3.60;;;10.90;70.90;;;;;;5010786;28;20944;-41
2022/04/06 06:20:29;;;;;;;7.43;3.37;;;10.90;70.50;;;;;;5026462;28;20465;-41
2022/04/06 06:22:56;;;;;;;5.70;3.47;;;10.90;70.50;;;;;;5023346;28;20969;-41
2022/04/06 06:25:22;;;;;;;6.10;3.50;;;10.90;71.10;;;;;;5024901;28;20464;-41
2022/04/06 06:27:49;;;;;;;5.37;3.40;;;11.00;70.50;;;;;;5007950;28;20499;-41
2022/04/06 06:30:17;;;;;;;7.43;3.60;;;11.00;70.00;;;;;;5023312;28;20550;-41
2022/04/06 06:32:44;;;;;;;6.03;3.70;;;11.00;70.10;;;;;;5026614;28;20472;-42
2022/04/06 06:35:11;;;;;;;8.67;3.07;;;11.00;70.00;;;;;;5010700;28;20478;-41
2022/04/06 06:37:48;;;;;;;9.27;3.70;;;11.00;70.10;;;;;;5028531;28;20557;-41
2022/04/06 06:40:19;;;;;;;6.83;2.63;;;11.00;69.90;;;;;;5025885;28;20456;-41
2022/04/06 06:42:46;;;;;;;5.63;3.10;;;11.00;70.10;;;;;;5009545;28;20519;-42
2022/04/06 06:45:14;;;;;;;7.93;3.57;;;11.10;69.90;;;;;;5026192;28;21064;-43
2022/04/06 06:47:41;;;;;;;4.53;3.30;;;11.10;70.50;;;;;;5026164;28;20466;-45
2022/04/06 06:50:12;;;;;;;6.17;3.60;;;11.10;70.70;;;;;;5025383;28;20452;-44
2022/04/06 06:52:39;;;;;;;7.33;3.70;;;11.20;70.80;;;;;;5011317;28;20460;-44
2022/04/06 06:55:12;;;;;;;6.97;3.33;;;11.30;70.30;;;;;;5030101;28;20460;-42
2022/04/06 06:57:39;;;;;;;10.50;3.80;;;11.40;69.80;;;;;;5029456;28;20906;-42
2022/04/06 07:00:07;;;;;;;4.70;3.80;;;11.50;69.80;;;;;;5009719;28;20467;-42
2022/04/06 07:02:33;;;;;;;6.27;3.33;;;11.50;69.30;;;;;;5025734;28;20453;-43
2022/04/06 07:05:00;;;;;;;8.70;3.53;;;11.40;69.70;;;;;;5024460;28;20596;-43
2022/04/06 07:07:27;;;;;;;8.13;5.20;;;11.50;69.60;;;;;;5028785;28;20462;-43
2022/04/06 07:09:54;;;;;;;8.67;3.30;;;11.50;69.80;;;;;;5011610;28;20574;-43
2022/04/06 07:12:20;;;;;;;5.20;3.07;;;11.60;69.60;;;;;;5029818;28;20810;-43
2022/04/06 07:14:53;;;;;;;5.33;3.20;;;11.70;68.80;;;;;;5013983;28;20469;-42
2022/04/06 07:17:20;;;;;;;6.87;3.37;;;11.70;68.90;;;;;;5030737;28;20446;-42
2022/04/06 07:19:47;;;;;;;8.53;3.47;;;11.80;68.20;;;;;;5030646;28;20452;-42
2022/04/06 07:22:13;;;;;;;7.63;4.57;;;11.90;67.40;;;;;;5011752;28;20457;-42
2022/04/06 07:24:40;;;;;;;10.60;5.70;;;11.80;68.10;;;;;;5030084;28;20465;-42
2022/04/06 07:27:12;;;;;;;7.50;4.40;;;11.90;67.80;;;;;;5031281;28;20975;-43
2022/04/06 07:29:38;;;;;;;5.23;3.80;;;11.90;68.30;;;;;;5028255;28;21051;-42
2022/04/06 07:32:06;;;;;;;11.17;4.87;;;11.90;67.70;;;;;;5028871;28;20997;-43
2022/04/06 07:34:32;;;;;;;6.70;4.40;;;11.90;67.50;;;;;;5030318;28;20453;-43
2022/04/06 07:36:59;;;;;;;6.73;3.50;;;12.00;67.60;;;;;;5029642;28;20821;-42
2022/04/06 07:39:29;;;;;;;6.63;4.30;;;12.00;66.50;;;;;;5029594;28;20506;-42
2022/04/06 07:41:56;;;;;;;7.40;4.03;;;12.00;66.50;;;;;;5029761;28;20465;-42
2022/04/06 07:44:23;;;;;;;7.07;4.13;;;12.00;66.70;;;;;;5029753;28;20456;-42
2022/04/06 07:46:51;;;;;;;8.30;3.90;;;12.10;65.90;;;;;;5025638;28;20567;-42
2022/04/06 07:49:18;;;;;;;5.20;4.00;;;12.10;65.40;;;;;;5031393;28;20498;-42
2022/04/06 07:51:45;;;;;;;6.40;4.07;;;12.10;65.40;;;;;;5013458;28;20488;-42
2022/04/06 07:54:12;;;;;;;8.40;4.07;;;12.10;65.00;;;;;;5029576;28;20455;-42
2022/04/06 07:56:40;;;;;;;8.47;5.00;;;12.20;64.70;;;;;;5026144;28;20465;-42
2022/04/06 07:59:07;;;;;;;3.90;3.50;;;12.20;63.90;;;;;;5024030;28;20460;-43
2022/04/06 08:01:34;;;;;;;5.43;4.20;;;12.20;64.80;;;;;;5027572;28;20457;-43
2022/04/06 08:04:00;;;;;;;4.40;3.93;;;12.20;64.40;;;;;;5028364;28;20457;-43
2022/04/06 08:06:27;;;;;;;6.10;3.60;;;12.20;64.20;;;;;;5029554;28;20548;-43
2022/04/06 08:08:54;;;;;;;5.73;3.90;;;12.20;64.90;;;;;;5028532;28;21041;-43
2022/04/06 08:11:21;;;;;;;5.60;3.47;;;12.20;64.50;;;;;;5011323;28;20817;-43
2022/04/06 08:13:48;;;;;;;7.07;3.10;;;12.20;64.70;;;;;;5027237;28;21099;-43
2022/04/06 08:16:15;;;;;;;5.80;4.50;;;12.20;64.00;;;;;;5010852;28;20552;-43
2022/04/06 08:18:42;;;;;;;6.27;3.63;;;12.20;64.40;;;;;;5027426;28;20463;-43
2022/04/06 08:21:09;;;;;;;5.30;4.43;;;12.20;65.20;;;;;;5010331;28;20471;-43
2022/04/06 08:23:36;;;;;;;6.27;4.00;;;12.20;64.60;;;;;;5025122;28;20996;-43
2022/04/06 08:26:03;;;;;;;6.53;3.87;;;12.20;64.70;;;;;;5026604;28;20463;-43
2022/04/06 08:28:30;;;;;;;12.83;4.53;;;12.20;65.00;;;;;;5028591;28;20493;-43
2022/04/06 08:30:57;;;;;;;4.57;3.50;;;12.20;65.60;;;;;;5027876;28;20858;-43
2022/04/06 08:33:24;;;;;;;5.93;4.80;;;12.10;65.50;;;;;;5028822;28;20455;-43
2022/04/06 08:35:53;;;;;;;5.63;4.07;;;12.20;65.30;;;;;;5029140;28;20468;-43
2022/04/06 08:38:20;;;;;;;8.97;4.73;;;12.20;65.80;;;;;;5027977;28;20552;-43
2022/04/06 08:40:48;;;;;;;7.40;4.30;;;12.20;65.60;;;;;;5027214;28;20826;-43
2022/04/06 08:43:16;;;;;;;5.77;5.20;;;12.30;66.40;;;;;;5024218;28;20465;-43
2022/04/06 08:45:43;;;;;;;7.23;3.73;;;12.30;66.00;;;;;;5026136;28;20495;-43
2022/04/06 08:48:11;;;;;;;5.23;3.90;;;12.50;64.60;;;;;;5026078;28;20500;-43
2022/04/06 08:50:39;;;;;;;8.00;3.37;;;12.50;63.70;;;;;;5028968;28;20503;-43
2022/04/06 08:53:07;;;;;;;3.87;3.47;;;12.60;63.10;;;;;;5027262;28;20466;-43
2022/04/06 08:55:34;;;;;;;7.40;3.90;;;12.70;62.60;;;;;;5010813;28;20461;-43
2022/04/06 08:58:02;;;;;;;8.00;3.77;;;12.80;62.50;;;;;;5026070;28;20452;-43
2022/04/06 09:00:29;;;;;;;7.53;3.00;;;13.10;61.70;;;;;;5025754;28;20828;-44
2022/04/06 09:02:56;;;;;;;7.00;3.73;;;13.30;60.80;;;;;;5028357;28;20468;-43
2022/04/06 09:05:26;;;;;;;5.47;2.90;;;13.40;61.00;;;;;;5028352;28;20452;-43
2022/04/06 09:07:53;;;;;;;4.03;3.50;;;13.40;60.10;;;;;;5027718;28;20497;-43
2022/04/06 09:10:35;;;;;;;4.70;3.70;;;13.40;59.70;;;;;;5027073;28;20488;-43
2022/04/06 09:13:08;;;;;;;6.70;3.40;;;13.40;60.00;;;;;;5024534;28;20461;-44
2022/04/06 09:15:35;;;;;;;3.50;2.90;;;13.40;59.50;;;;;;5025948;28;20539;-44
2022/04/06 09:18:02;;;;;;;4.60;3.73;;;13.40;59.50;;;;;;5006997;28;20453;-43
2022/04/06 09:20:31;;;;;;;6.30;3.10;;;13.40;59.70;;;;;;5029005;28;20457;-43
2022/04/06 09:23:04;;;;;;;7.37;3.60;;;13.30;59.80;;;;;;5025699;28;20556;-43
2022/04/06 09:25:36;;;;;;;5.43;3.77;;;13.30;60.10;;;;;;5023841;28;20468;-43
2022/04/06 09:28:10;;;;;;;7.53;3.70;;;13.30;60.30;;;;;;5024574;28;20997;-43
2022/04/06 09:30:46;;;;;;;4.80;3.80;;;13.30;60.30;;;;;;5008667;28;20490;-44
2022/04/06 09:33:19;;;;;;;6.03;4.17;;;13.30;60.50;;;;;;5028176;28;20488;-44
2022/04/06 09:35:47;;;;;;;4.13;3.30;;;13.20;60.90;;;;;;5025214;28;20940;-43
2022/04/06 09:38:22;;;;;;;6.80;3.77;;;13.30;61.30;;;;;;5025039;28;20465;-43
2022/04/06 09:40:59;;;;;;;5.73;3.77;;;13.40;61.70;;;;;;5027276;28;21271;-43
2022/04/06 09:43:28;;;;;;;8.53;5.00;;;13.40;62.60;;;;;;5028257;28;21183;-44
2022/04/06 09:49:01;;;;;;;10.20;3.70;;;13.40;60.80;;;;;;5014773;28;20992;-43
2022/04/06 09:51:29;;;;;;;7.50;4.20;;;13.40;61.60;;;;;;5024578;28;20457;-44
2022/04/06 09:53:56;;;;;;;8.20;4.23;;;13.40;61.80;;;;;;5014186;28;20479;-44
2022/04/06 09:56:23;;;;;;;5.50;4.67;;;13.40;62.60;;;;;;4993157;28;20833;-43
2022/04/06 09:58:50;;;;;;;6.60;4.77;;;13.40;62.70;;;;;;5008790;28;20480;-43
2022/04/06 10:01:18;;;;;;;9.00;5.27;;;13.50;62.30;;;;;;5026597;28;20468;-43
2022/04/06 10:03:50;;;;;;;8.90;4.73;;;13.50;61.50;;;;;;4986673;28;20517;-43
2022/04/06 10:06:17;;;;;;;4.33;3.87;;;13.40;62.00;;;;;;5023465;28;20462;-43
2022/04/06 10:08:44;;;;;;;6.20;5.50;;;13.40;62.20;;;;;;5026970;28;20508;-44
2022/04/06 10:11:12;;;;;;;8.63;4.37;;;13.50;63.10;;;;;;5027649;28;20457;-43
2022/04/06 10:13:40;;;;;;;7.90;4.70;;;13.60;62.40;;;;;;4987535;28;20466;-43
2022/04/06 10:16:20;;;;;;;6.53;5.00;;;13.70;61.80;;;;;;5028268;28;20555;-43
2022/04/06 10:18:48;;;;;;;9.37;5.13;;;13.80;61.20;;;;;;5009831;28;20488;-43
2022/04/06 10:21:21;;;;;;;7.30;4.80;;;14.00;60.50;;;;;;5000151;28;20465;-42
2022/04/06 10:24:01;;;;;;;6.10;4.50;;;14.10;60.30;;;;;;5026037;28;20458;-42
2022/04/06 10:26:50;;;;;;;5.37;4.17;;;14.30;59.10;;;;;;5031348;28;20452;-42
2022/04/06 10:29:17;;;;;;;6.93;4.50;;;14.30;59.30;;;;;;5030231;28;20491;-42
2022/04/06 10:31:46;;;;;;;15.00;4.50;;;14.20;59.20;;;;;;5028975;28;20483;-42
2022/04/06 10:34:24;;;;;;;5.23;3.50;;;14.20;60.20;;;;;;5028283;28;20511;-43
2022/04/06 10:37:10;;;;;;;7.07;4.10;;;14.20;60.10;;;;;;5029695;28;20488;-43
2022/04/06 10:39:57;;;;;;;7.20;3.90;;;14.20;59.10;;;;;;5029883;28;20576;-43
2022/04/06 10:42:34;;;;;;;4.33;3.93;;;14.10;59.50;;;;;;5028929;28;20488;-43
2022/04/06 10:45:22;;;;;;;5.03;4.00;;;14.00;59.00;;;;;;4997237;28;20467;-43
2022/04/06 10:48:25;;;;;;;5.43;4.53;;;13.80;59.50;;;;;;5025424;28;21231;-43
2022/04/06 10:50:51;;;;;;;8.30;4.27;;;13.70;60.00;;;;;;4947227;29;20500;-43
2022/04/06 10:53:18;;;;;;;5.90;4.07;;;13.80;59.80;;;;;;5014067;28;20465;-43
2022/04/06 10:56:03;;;;;;;6.90;5.27;;;13.70;60.60;;;;;;5030358;28;20468;-43
2022/04/06 10:58:52;;;;;;;7.27;4.10;;;13.70;61.20;;;;;;5026520;28;20488;-43
2022/04/06 11:01:25;;;;;;;6.10;4.60;;;13.80;61.90;;;;;;5024838;28;20469;-43
2022/04/06 11:04:06;;;;;;;7.57;5.03;;;13.80;60.60;;;;;;5027809;28;20472;-43
2022/04/06 11:06:49;;;;;;;6.67;4.17;;;13.80;59.90;;;;;;5026123;28;20496;-43
2022/04/06 11:12:28;;;;;;;7.87;4.60;;;13.80;60.40;;;;;;5030163;28;20883;-42
2022/04/06 11:15:00;;;;;;;8.80;4.00;;;13.70;60.20;;;;;;5013435;28;20456;-43
2022/04/06 11:17:42;;;;;;;6.63;4.07;;;13.80;61.30;;;;;;5013492;28;20454;-43
2022/04/06 11:20:09;;;;;;;9.33;5.17;;;13.80;60.70;;;;;;5023106;28;20556;-43
2022/04/06 11:23:00;;;;;;;6.10;4.50;;;13.80;60.90;;;;;;5023584;28;20466;-43
2022/04/06 11:25:31;;;;;;;6.33;3.33;;;13.80;60.40;;;;;;5024520;28;20465;-43
2022/04/06 11:28:09;;;;;;;6.60;4.43;;;14.00;61.00;;;;;;5024033;28;20556;-43
2022/04/06 11:30:38;;;;;;;5.83;3.27;;;14.20;60.10;;;;;;5026912;28;20496;-43
2022/04/06 11:33:05;;;;;;;3.30;3.00;;;14.30;58.60;;;;;;5031042;28;20465;-43
2022/04/06 11:35:34;;;;;;;5.90;3.77;;;14.50;58.30;;;;;;5026449;28;20476;-43
2022/04/06 11:38:04;;;;;;;7.97;4.07;;;14.50;57.30;;;;;;5026979;28;20928;-43
2022/04/06 11:40:31;;;;;;;7.97;3.77;;;14.40;57.70;;;;;;5026256;28;20466;-43
2022/04/06 11:43:02;;;;;;;5.80;2.87;;;14.40;56.90;;;;;;5028102;28;20488;-43
2022/04/06 11:45:30;;;;;;;5.53;2.67;;;14.30;56.60;;;;;;5010310;28;21068;-43
2022/04/06 11:48:00;;;;;;;7.10;3.00;;;14.20;57.40;;;;;;5010189;28;20495;-42
2022/04/06 11:50:29;;;;;;;3.10;2.30;;;14.30;58.00;;;;;;5027702;28;20490;-43
2022/04/06 11:53:00;;;;;;;4.50;2.20;;;14.50;57.70;;;;;;5025948;28;20519;-43
2022/04/06 11:55:47;;;;;;;3.30;2.53;;;14.80;55.20;;;;;;5027857;28;20480;-43
2022/04/06 11:58:33;;;;;;;4.37;2.30;;;15.00;54.80;;;;;;5029058;28;20455;-43
2022/04/06 12:01:05;;;;;;;5.77;2.20;;;15.10;54.30;;;;;;5026272;28;20468;-42
2022/04/06 12:03:43;;;;;;;3.87;2.13;;;15.20;53.80;;;;;;5008746;28;20457;-42
2022/04/06 12:06:12;;;;;;;6.17;2.10;;;15.20;54.30;;;;;;5025533;28;20507;-43
2022/04/06 12:08:41;;;;;;;5.07;2.00;;;15.30;53.40;;;;;;5012105;28;20460;-43
2022/04/06 12:11:08;;;;;;;3.33;2.17;;;15.20;53.10;;;;;;5029611;28;20579;-43
2022/04/06 12:13:40;;;;;;;4.10;1.50;;;15.20;53.40;;;;;;5009565;28;20461;-43
2022/04/06 12:16:08;;;;;;;4.10;1.90;;;15.30;53.20;;;;;;5027829;28;20453;-43
2022/04/06 12:18:39;;;;;;;5.63;2.73;;;15.30;52.40;;;;;;5010079;28;21308;-43
2022/04/06 12:21:28;;;;;;;2.63;1.73;;;15.40;53.00;;;;;;5024203;28;20556;-43
2022/04/06 12:23:55;;;;;;;3.70;1.27;;;15.50;53.10;;;;;;5029194;28;20468;-43
2022/04/06 12:26:23;;;;;;;4.07;1.47;;;15.70;51.60;;;;;;5029283;28;20466;-43
2022/04/06 12:28:58;;;;;;;3.83;1.40;;;15.70;51.10;;;;;;5011813;28;20492;-43
2022/04/06 12:31:36;;;;;;;1.50;1.33;;;15.70;51.60;;;;;;5027561;28;21068;-43
2022/04/06 12:34:03;;;;;;;3.00;1.83;;;15.60;51.90;;;;;;5024461;28;20997;-43
2022/04/06 12:36:30;;;;;;;2.10;1.33;;;15.50;52.10;;;;;;5030491;28;21010;-43
2022/04/06 12:39:10;;;;;;;3.20;1.57;;;15.50;53.00;;;;;;5027867;28;20446;-43
2022/04/06 12:41:58;;;;;;;6.17;2.00;;;15.60;52.90;;;;;;5015214;28;20889;-43
2022/04/06 12:44:27;;;;;;;2.50;1.83;;;15.80;52.50;;;;;;5028670;28;20488;-43
2022/04/06 12:46:54;;;;;;;4.67;1.90;;;15.90;51.00;;;;;;5026019;28;20488;-44
2022/04/06 12:49:41;;;;;;;1.90;1.63;;;15.90;50.60;;;;;;5027943;28;20748;-44
2022/04/06 12:52:18;;;;;;;2.90;1.50;;;15.90;51.20;;;;;;5010037;28;20471;-43
2022/04/06 12:54:50;;;;;;;3.40;1.40;;;16.00;51.80;;;;;;5025540;28;20458;-43
2022/04/06 12:57:17;;;;;;;2.53;1.80;;;16.00;51.70;;;;;;5026143;28;20887;-43
2022/04/06 12:59:45;;;;;;;2.60;1.70;;;16.20;52.30;;;;;;5026322;28;20461;-43
2022/04/06 13:02:24;;;;;;;5.30;1.73;;;16.30;51.50;;;;;;5023712;28;20886;-44
2022/04/06 13:04:53;;;;;;;1.97;1.50;;;16.30;51.90;;;;;;5026684;28;20465;-43